Pinon Hills, California
Current Conditions -  °F | °C
As of 12:55 PM on Tuesday 25 Nov 2014 (Local Time) from KGXA Reporting Station
Clear Clear  
Wind Chill: 66°   Ceiling: Unl
Heat Index: 66°   Visibility: 10mi
Dew Point:   Wind: 2mph
Humidity: 9%   Direction: 80°E
Pressure: 30.4"   Gusts: NA
Location:  34.43°N, 117.65°W
Report Text: KGXA 252055Z AUTO 08002KT 10SM CLR 19/M15 A3040 RMK AO2 SLP300 T01901151 57028 PWINO TSNO $
Loading
Personal Weather Stations






























Interactive Weather Map New forecast layout! Learn more

10-Day Weather Forecast

Advertisements
Track Severe Weather on mobile